createdAt,value
2019-04-30T00:04:40.220Z,27.73
2019-04-30T00:09:40.881Z,27.20
2019-04-30T00:14:42.429Z,26.63
2019-04-30T00:19:45.934Z,27.50
2019-04-30T00:24:49.997Z,26.67
2019-04-30T00:29:51.504Z,27.83
2019-04-30T00:34:53.057Z,27.40
2019-04-30T00:39:55.664Z,27.60
2019-04-30T00:44:59.639Z,26.90
2019-04-30T00:50:05.936Z,26.70
2019-04-30T00:55:09.039Z,27.50
2019-04-30T01:00:11.798Z,28.67
2019-04-30T01:05:18.519Z,26.97
2019-04-30T01:10:24.768Z,26.33
2019-04-30T01:15:24.788Z,27.10
2019-04-30T01:20:31.008Z,27.73
2019-04-30T01:25:30.585Z,35.63
2019-04-30T01:30:32.376Z,27.83
2019-04-30T01:35:34.458Z,28.60
2019-04-30T01:40:38.319Z,28.20
2019-04-30T01:45:39.875Z,31.40
2019-04-30T01:50:42.248Z,36.30
2019-04-30T01:55:49.498Z,42.70
2019-04-30T02:00:55.954Z,37.93
2019-04-30T02:05:59.654Z,33.53
2019-04-30T02:11:01.262Z,50.80
2019-04-30T02:16:02.822Z,35.93
2019-04-30T02:21:04.524Z,40.70
2019-04-30T02:26:05.982Z,32.83
2019-04-30T02:31:09.238Z,40.20
2019-04-30T02:36:13.053Z,63.67
2019-04-30T02:41:15.534Z,57.03
2019-04-30T02:46:19.172Z,55.63
2019-04-30T02:51:24.431Z,55.10
2019-04-30T02:56:27.026Z,56.03
2019-04-30T03:01:30.657Z,52.07
2019-04-30T03:06:32.407Z,44.70
2019-04-30T03:11:34.288Z,41.33
2019-04-30T03:16:40.898Z,34.87
2019-04-30T03:21:50.452Z,34.43
2019-04-30T03:26:52.123Z,34.37
2019-04-30T03:31:53.597Z,34.50
2019-04-30T03:36:55.049Z,30.73
2019-04-30T03:41:56.488Z,33.00
2019-04-30T03:46:59.308Z,32.60
2019-04-30T03:52:01.645Z,33.17
2019-04-30T03:57:03.989Z,31.77
2019-04-30T04:02:23.713Z,41.70
2019-04-30T04:07:36.772Z,51.00
2019-04-30T04:12:39.501Z,53.83
2019-04-30T04:17:41.613Z,80.23
2019-04-30T04:22:43.041Z,80.87
2019-04-30T04:27:44.534Z,84.40
2019-04-30T04:32:46.461Z,74.63
2019-04-30T04:37:49.525Z,61.17
2019-04-30T04:42:51.770Z,53.03
2019-04-30T04:47:53.321Z,49.80
2019-04-30T04:52:55.515Z,50.63
2019-04-30T04:57:59.648Z,55.87
2019-04-30T05:03:05.143Z,57.70
2019-04-30T05:08:08.465Z,58.73
2019-04-30T05:13:10.309Z,78.23
2019-04-30T05:18:12.941Z,74.13
2019-04-30T05:23:14.457Z,83.87
2019-04-30T05:28:16.386Z,97.73
2019-04-30T05:33:18.646Z,98.63
2019-04-30T05:38:20.380Z,95.00
2019-04-30T05:43:22.358Z,87.00
2019-04-30T05:48:23.844Z,79.27
2019-04-30T05:53:25.602Z,73.63
2019-04-30T05:58:27.103Z,69.23
2019-04-30T06:03:32.949Z,64.13
2019-04-30T06:08:34.093Z,66.37
2019-04-30T06:13:54.389Z,61.17
2019-04-30T06:18:58.464Z,58.73
2019-04-30T06:23:59.984Z,64.67
2019-04-30T06:29:01.414Z,68.33
2019-04-30T06:34:04.554Z,61.57
2019-04-30T06:39:06.007Z,64.87
2019-04-30T06:44:07.525Z,64.67
2019-04-30T06:49:09.618Z,60.17
2019-04-30T06:54:12.545Z,54.57
2019-04-30T06:59:14.067Z,49.70
2019-04-30T07:04:15.869Z,49.87
2019-04-30T07:09:19.722Z,42.10
2019-04-30T07:14:21.365Z,46.20
2019-04-30T07:19:32.882Z,46.07
2019-04-30T07:24:26.785Z,47.57
2019-04-30T07:29:29.538Z,49.40
2019-04-30T07:34:36.934Z,48.87
2019-04-30T07:39:35.920Z,49.03
2019-04-30T07:44:39.399Z,50.77
2019-04-30T07:49:49.443Z,50.37
2019-04-30T07:54:45.270Z,48.53
2019-04-30T07:59:46.838Z,50.13
2019-04-30T08:05:02.679Z,46.30
2019-04-30T08:10:08.757Z,42.73
2019-04-30T08:15:10.491Z,43.73
2019-04-30T08:20:12.279Z,42.50
2019-04-30T08:25:14.117Z,42.10
2019-04-30T08:30:25.615Z,44.17
2019-04-30T08:35:19.905Z,44.10
2019-04-30T08:40:22.166Z,44.50
2019-04-30T08:45:23.906Z,48.30
2019-04-30T08:50:25.867Z,49.73
2019-04-30T08:55:30.294Z,49.13
2019-04-30T09:00:31.665Z,49.60
2019-04-30T09:05:35.212Z,49.03
2019-04-30T09:10:39.140Z,50.60
2019-04-30T09:15:41.722Z,51.70
2019-04-30T09:20:43.865Z,50.87
2019-04-30T09:25:51.992Z,52.53
2019-04-30T09:30:55.754Z,49.80
2019-04-30T09:35:57.246Z,50.00
2019-04-30T09:41:11.568Z,51.20
2019-04-30T09:46:25.952Z,50.07
2019-04-30T09:51:20.623Z,49.77
2019-04-30T09:56:23.098Z,49.90
2019-04-30T10:01:25.115Z,50.67
2019-04-30T10:06:38.926Z,48.60
2019-04-30T10:11:49.957Z,47.40
2019-04-30T10:16:56.786Z,47.40
2019-04-30T10:21:59.043Z,46.50
2019-04-30T10:27:01.422Z,49.07
2019-04-30T10:32:03.168Z,49.33
2019-04-30T10:37:05.275Z,48.93
2019-04-30T10:42:12.322Z,48.40
2019-04-30T10:47:16.844Z,48.43
2019-04-30T10:52:19.243Z,47.17
2019-04-30T10:57:21.095Z,45.77
2019-04-30T11:02:22.969Z,47.90
2019-04-30T11:07:24.709Z,46.30
2019-04-30T11:12:26.343Z,46.37
2019-04-30T11:17:32.944Z,47.57
2019-04-30T11:22:33.564Z,47.20
2019-04-30T11:27:36.204Z,46.90
2019-04-30T11:32:38.860Z,50.30
2019-04-30T11:37:40.645Z,49.20
2019-04-30T11:42:42.300Z,49.00
2019-04-30T11:47:53.366Z,49.80
2019-04-30T11:52:48.132Z,49.73
2019-04-30T11:57:49.951Z,47.93
2019-04-30T12:02:52.993Z,48.67
2019-04-30T12:08:09.552Z,47.40
2019-04-30T12:13:25.029Z,47.10
2019-04-30T12:18:27.428Z,47.33
2019-04-30T12:23:29.332Z,48.10
2019-04-30T12:28:30.972Z,47.10
2019-04-30T12:33:33.041Z,45.77
2019-04-30T12:38:35.277Z,46.07
2019-04-30T12:43:38.744Z,46.73
2019-04-30T12:49:00.605Z,44.90
2019-04-30T12:54:05.055Z,45.40
2019-04-30T12:59:06.856Z,45.27
2019-04-30T13:04:09.780Z,45.00
2019-04-30T13:09:12.073Z,45.50
2019-04-30T13:14:15.000Z,47.30
2019-04-30T13:19:17.315Z,45.47
2019-04-30T13:24:21.822Z,45.50
2019-04-30T13:29:47.034Z,47.33
2019-04-30T13:34:55.661Z,45.90
2019-04-30T13:39:59.503Z,47.73
2019-04-30T13:45:01.519Z,49.03
2019-04-30T13:50:04.163Z,48.70
2019-04-30T13:55:06.228Z,49.87
2019-04-30T14:00:13.981Z,46.63
2019-04-30T14:05:17.737Z,47.03
2019-04-30T14:10:19.680Z,46.30
2019-04-30T14:15:21.539Z,47.17
2019-04-30T14:20:23.270Z,47.40
2019-04-30T14:25:25.250Z,47.30
2019-04-30T14:30:29.145Z,46.37
2019-04-30T14:35:30.618Z,46.13
2019-04-30T14:40:32.711Z,47.20
2019-04-30T14:45:39.343Z,45.40
2019-04-30T14:50:41.327Z,46.90
2019-04-30T14:56:08.894Z,45.90
2019-04-30T15:01:11.799Z,46.70
2019-04-30T15:06:14.061Z,45.63
2019-04-30T15:11:15.603Z,46.50
2019-04-30T15:16:17.143Z,46.50
2019-04-30T15:21:18.684Z,48.57
2019-04-30T15:26:22.927Z,50.00
2019-04-30T15:31:26.257Z,47.80
2019-04-30T15:36:29.320Z,49.03
2019-04-30T15:41:30.993Z,49.20
2019-04-30T15:46:32.550Z,48.60
2019-04-30T15:51:34.395Z,47.97
2019-04-30T15:56:39.953Z,48.13
2019-04-30T16:01:42.042Z,51.13
2019-04-30T16:06:43.728Z,54.90
2019-04-30T16:11:49.187Z,50.17
2019-04-30T16:16:59.041Z,55.97
2019-04-30T16:22:00.478Z,53.10
2019-04-30T16:27:02.259Z,51.43
2019-04-30T16:32:03.836Z,52.33
2019-04-30T16:37:05.498Z,51.30
2019-04-30T16:42:08.954Z,51.63
2019-04-30T16:47:14.515Z,51.43
2019-04-30T16:52:18.878Z,52.93
2019-04-30T16:57:20.528Z,50.23
2019-04-30T17:02:26.506Z,52.37
2019-04-30T17:07:39.545Z,51.47
2019-04-30T17:12:52.767Z,51.77
2019-04-30T17:17:55.177Z,53.83
2019-04-30T17:22:59.350Z,51.87
2019-04-30T17:28:01.510Z,53.13
2019-04-30T17:33:04.065Z,52.57
2019-04-30T17:38:06.453Z,54.53
2019-04-30T17:43:08.297Z,54.43
2019-04-30T17:48:10.378Z,54.60
2019-04-30T17:53:12.031Z,55.00
2019-04-30T17:58:13.689Z,60.27
2019-04-30T18:03:15.935Z,55.67
2019-04-30T18:08:18.414Z,57.97
2019-04-30T18:13:20.849Z,53.10
2019-04-30T18:18:25.456Z,51.10
2019-04-30T18:23:34.906Z,50.10
2019-04-30T18:28:37.191Z,53.23
2019-04-30T18:33:39.985Z,55.57
2019-04-30T18:38:42.387Z,52.27
2019-04-30T18:43:44.507Z,54.10
2019-04-30T18:48:46.341Z,54.90
2019-04-30T18:53:49.383Z,50.63
2019-04-30T18:58:52.368Z,52.93
2019-04-30T19:03:58.429Z,54.40
2019-04-30T19:09:02.167Z,55.37
2019-04-30T19:14:09.561Z,53.57
2019-04-30T19:19:19.557Z,52.77
2019-04-30T19:24:22.023Z,57.90
2019-04-30T19:29:23.992Z,54.63
2019-04-30T19:34:31.699Z,53.00
2019-04-30T19:39:33.842Z,48.00
2019-04-30T19:44:35.736Z,50.92
2019-04-30T19:49:38.994Z,54.67
2019-04-30T19:54:41.887Z,53.60
2019-04-30T19:59:43.579Z,54.50
2019-04-30T20:04:45.893Z,49.60
2019-04-30T20:10:00.290Z,51.97
2019-04-30T20:14:52.440Z,50.60
2019-04-30T20:19:55.759Z,44.83
2019-04-30T20:24:59.361Z,56.70
2019-04-30T20:30:09.537Z,51.20
2019-04-30T20:35:12.836Z,55.40
2019-04-30T20:40:18.566Z,51.20
2019-04-30T20:45:26.103Z,43.80
2019-04-30T20:50:30.003Z,50.90
2019-04-30T20:55:31.692Z,48.67
2019-04-30T21:00:33.378Z,48.53
2019-04-30T21:05:35.475Z,48.93
2019-04-30T21:10:44.260Z,44.60
2019-04-30T21:15:49.610Z,46.20
2019-04-30T21:20:51.813Z,42.37
2019-04-30T21:25:53.492Z,46.47
2019-04-30T21:30:55.597Z,45.47
2019-04-30T21:36:08.979Z,50.53
2019-04-30T21:41:11.092Z,47.53
2019-04-30T21:46:12.713Z,44.90
2019-04-30T21:51:15.101Z,48.90
2019-04-30T21:56:17.159Z,46.37
2019-04-30T22:01:20.626Z,45.73
2019-04-30T22:06:23.102Z,47.00
2019-04-30T22:11:24.887Z,49.67
2019-04-30T22:16:26.895Z,54.07
2019-04-30T22:21:30.444Z,52.17
2019-04-30T22:26:32.709Z,54.73
2019-04-30T22:31:34.281Z,55.67
2019-04-30T22:36:38.749Z,54.67
2019-04-30T22:41:40.777Z,50.30
2019-04-30T22:46:44.196Z,48.37
2019-04-30T22:51:49.118Z,51.20
2019-04-30T22:56:50.785Z,56.00
2019-04-30T23:01:57.313Z,50.50
2019-04-30T23:06:59.004Z,43.93
2019-04-30T23:12:02.733Z,48.47
2019-04-30T23:17:05.093Z,47.70
2019-04-30T23:22:06.826Z,45.73
2019-04-30T23:27:08.929Z,45.43
2019-04-30T23:32:13.400Z,46.90
2019-04-30T23:37:14.679Z,38.67
2019-04-30T23:42:16.378Z,40.53
2019-04-30T23:47:17.936Z,47.53
2019-04-30T23:52:19.497Z,45.20
2019-04-30T23:57:21.754Z,41.60
